sensor_id;sensor_type;location;lat;lon;timestamp;pressure;altitude;pressure_sealevel;temperature
70050;BMP180;57391;51.306;22.680;2023-05-10T00:00:02;100382.60;;;6.98
70050;BMP180;57391;51.306;22.680;2023-05-10T00:03:00;100372.40;;;6.90
70050;BMP180;57391;51.306;22.680;2023-05-10T00:05:27;100372.20;;;6.80
70050;BMP180;57391;51.306;22.680;2023-05-10T00:07:54;100371.80;;;6.74
70050;BMP180;57391;51.306;22.680;2023-05-10T00:10:23;100369.20;;;6.70
70050;BMP180;57391;51.306;22.680;2023-05-10T00:12:50;100363.80;;;6.60
70050;BMP180;57391;51.306;22.680;2023-05-10T00:15:17;100364.80;;;6.60
70050;BMP180;57391;51.306;22.680;2023-05-10T00:17:47;100363.40;;;6.50
70050;BMP180;57391;51.306;22.680;2023-05-10T00:20:14;100360.80;;;6.40
70050;BMP180;57391;51.306;22.680;2023-05-10T00:22:41;100364.40;;;6.38
70050;BMP180;57391;51.306;22.680;2023-05-10T00:25:09;100365.80;;;6.30
70050;BMP180;57391;51.306;22.680;2023-05-10T00:27:37;100362.80;;;6.26
70050;BMP180;57391;51.306;22.680;2023-05-10T00:30:05;100362.60;;;6.20
70050;BMP180;57391;51.306;22.680;2023-05-10T00:32:33;100363.00;;;6.18
70050;BMP180;57391;51.306;22.680;2023-05-10T00:35:00;100359.60;;;6.10
70050;BMP180;57391;51.306;22.680;2023-05-10T00:37:27;100363.20;;;6.08
70050;BMP180;57391;51.306;22.680;2023-05-10T00:39:58;100358.20;;;6.00
70050;BMP180;57391;51.306;22.680;2023-05-10T00:42:25;100359.00;;;6.00
70050;BMP180;57391;51.306;22.680;2023-05-10T00:44:53;100358.40;;;5.90
70050;BMP180;57391;51.306;22.680;2023-05-10T00:47:21;100353.60;;;5.90
70050;BMP180;57391;51.306;22.680;2023-05-10T00:49:49;100356.80;;;5.80
70050;BMP180;57391;51.306;22.680;2023-05-10T00:52:16;100355.80;;;5.80
70050;BMP180;57391;51.306;22.680;2023-05-10T00:54:44;100359.20;;;5.70
70050;BMP180;57391;51.306;22.680;2023-05-10T00:57:11;100359.60;;;5.68
70050;BMP180;57391;51.306;22.680;2023-05-10T00:59:38;100356.80;;;5.60
70050;BMP180;57391;51.306;22.680;2023-05-10T01:02:06;100348.20;;;5.58
70050;BMP180;57391;51.306;22.680;2023-05-10T01:04:35;100350.20;;;5.50
70050;BMP180;57391;51.306;22.680;2023-05-10T01:07:03;100349.00;;;5.40
70050;BMP180;57391;51.306;22.680;2023-05-10T01:09:31;100341.40;;;5.40
70050;BMP180;57391;51.306;22.680;2023-05-10T01:12:01;100342.40;;;5.30
70050;BMP180;57391;51.306;22.680;2023-05-10T01:14:30;100343.40;;;5.30
70050;BMP180;57391;51.306;22.680;2023-05-10T01:16:58;100340.80;;;5.20
70050;BMP180;57391;51.306;22.680;2023-05-10T01:19:30;100340.20;;;5.20
70050;BMP180;57391;51.306;22.680;2023-05-10T01:28:26;100333.60;;;5.08
70050;BMP180;57391;51.306;22.680;2023-05-10T01:34:17;100338.00;;;5.00
70050;BMP180;57391;51.306;22.680;2023-05-10T01:37:04;100338.20;;;5.00
70050;BMP180;57391;51.306;22.680;2023-05-10T01:40:10;100339.60;;;5.00
70050;BMP180;57391;51.306;22.680;2023-05-10T01:42:54;100341.80;;;5.00
70050;BMP180;57391;51.306;22.680;2023-05-10T01:45:37;100339.20;;;4.90
70050;BMP180;57391;51.306;22.680;2023-05-10T01:48:09;100338.00;;;4.90
70050;BMP180;57391;51.306;22.680;2023-05-10T01:50:42;100335.80;;;4.90
70050;BMP180;57391;51.306;22.680;2023-05-10T01:53:13;100333.00;;;4.90
70050;BMP180;57391;51.306;22.680;2023-05-10T01:55:50;100329.80;;;4.90
70050;BMP180;57391;51.306;22.680;2023-05-10T01:58:40;100327.40;;;4.88
70050;BMP180;57391;51.306;22.680;2023-05-10T02:01:13;100322.60;;;4.82
70050;BMP180;57391;51.306;22.680;2023-05-10T02:03:43;100319.40;;;4.80
70050;BMP180;57391;51.306;22.680;2023-05-10T02:06:14;100318.20;;;4.80
70050;BMP180;57391;51.306;22.680;2023-05-10T02:08:44;100312.80;;;4.76
70050;BMP180;57391;51.306;22.680;2023-05-10T02:11:14;100315.80;;;4.70
70050;BMP180;57391;51.306;22.680;2023-05-10T02:13:42;100311.20;;;4.70
70050;BMP180;57391;51.306;22.680;2023-05-10T02:16:13;100318.00;;;4.70
70050;BMP180;57391;51.306;22.680;2023-05-10T02:18:42;100320.40;;;4.70
70050;BMP180;57391;51.306;22.680;2023-05-10T02:21:10;100317.40;;;4.70
70050;BMP180;57391;51.306;22.680;2023-05-10T02:23:39;100316.80;;;4.70
70050;BMP180;57391;51.306;22.680;2023-05-10T02:26:08;100310.60;;;4.74
70050;BMP180;57391;51.306;22.680;2023-05-10T02:28:37;100308.80;;;4.80
70050;BMP180;57391;51.306;22.680;2023-05-10T02:31:06;100308.00;;;4.80
70050;BMP180;57391;51.306;22.680;2023-05-10T02:33:36;100310.80;;;4.80
70050;BMP180;57391;51.306;22.680;2023-05-10T02:36:07;100308.60;;;4.80
70050;BMP180;57391;51.306;22.680;2023-05-10T02:38:35;100304.60;;;4.80
70050;BMP180;57391;51.306;22.680;2023-05-10T02:41:06;100310.20;;;4.80
70050;BMP180;57391;51.306;22.680;2023-05-10T02:43:35;100305.80;;;4.80
70050;BMP180;57391;51.306;22.680;2023-05-10T02:46:04;100305.40;;;4.80
70050;BMP180;57391;51.306;22.680;2023-05-10T02:48:31;100305.00;;;4.78
70050;BMP180;57391;51.306;22.680;2023-05-10T02:51:05;100302.20;;;4.80
70050;BMP180;57391;51.306;22.680;2023-05-10T02:53:36;100300.60;;;4.80
70050;BMP180;57391;51.306;22.680;2023-05-10T02:56:14;100303.00;;;4.80
70050;BMP180;57391;51.306;22.680;2023-05-10T02:58:42;100308.20;;;4.80
70050;BMP180;57391;51.306;22.680;2023-05-10T03:01:09;100305.00;;;4.80
70050;BMP180;57391;51.306;22.680;2023-05-10T03:03:36;100308.60;;;4.80
70050;BMP180;57391;51.306;22.680;2023-05-10T03:06:04;100306.00;;;4.88
70050;BMP180;57391;51.306;22.680;2023-05-10T03:08:31;100310.00;;;4.90
70050;BMP180;57391;51.306;22.680;2023-05-10T03:15:00;100309.60;;;4.90
70050;BMP180;57391;51.306;22.680;2023-05-10T03:17:54;100308.80;;;4.90
70050;BMP180;57391;51.306;22.680;2023-05-10T03:20:29;100310.80;;;4.90
70050;BMP180;57391;51.306;22.680;2023-05-10T03:23:16;100310.20;;;4.90
70050;BMP180;57391;51.306;22.680;2023-05-10T03:25:49;100307.80;;;4.90
70050;BMP180;57391;51.306;22.680;2023-05-10T03:28:21;100315.60;;;4.90
70050;BMP180;57391;51.306;22.680;2023-05-10T03:30:56;100310.00;;;4.90
70050;BMP180;57391;51.306;22.680;2023-05-10T03:33:23;100306.20;;;5.00
70050;BMP180;57391;51.306;22.680;2023-05-10T03:35:50;100307.20;;;5.08
70050;BMP180;57391;51.306;22.680;2023-05-10T03:38:18;100312.20;;;5.10
70050;BMP180;57391;51.306;22.680;2023-05-10T03:40:47;100313.40;;;5.20
70050;BMP180;57391;51.306;22.680;2023-05-10T03:43:14;100307.40;;;5.22
70050;BMP180;57391;51.306;22.680;2023-05-10T03:45:42;100306.60;;;5.30
70050;BMP180;57391;51.306;22.680;2023-05-10T03:48:09;100300.80;;;5.36
70050;BMP180;57391;51.306;22.680;2023-05-10T03:50:37;100293.20;;;5.98
70050;BMP180;57391;51.306;22.680;2023-05-10T03:53:04;100286.80;;;7.70
70050;BMP180;57391;51.306;22.680;2023-05-10T03:55:31;100288.60;;;9.58
70050;BMP180;57391;51.306;22.680;2023-05-10T03:58:01;100296.40;;;11.36
70050;BMP180;57391;51.306;22.680;2023-05-10T04:00:28;100297.40;;;12.86
70050;BMP180;57391;51.306;22.680;2023-05-10T04:02:55;100299.60;;;14.24
70050;BMP180;57391;51.306;22.680;2023-05-10T04:05:23;100306.60;;;15.62
70050;BMP180;57391;51.306;22.680;2023-05-10T04:07:52;100307.00;;;16.84
70050;BMP180;57391;51.306;22.680;2023-05-10T04:10:20;100316.00;;;17.78
70050;BMP180;57391;51.306;22.680;2023-05-10T04:12:47;100311.60;;;18.54
70050;BMP180;57391;51.306;22.680;2023-05-10T04:15:15;100318.80;;;19.14
70050;BMP180;57391;51.306;22.680;2023-05-10T04:17:41;100314.60;;;19.68
70050;BMP180;57391;51.306;22.680;2023-05-10T04:20:09;100315.20;;;20.20
70050;BMP180;57391;51.306;22.680;2023-05-10T04:22:37;100316.00;;;20.74
70050;BMP180;57391;51.306;22.680;2023-05-10T04:25:05;100318.40;;;21.26
70050;BMP180;57391;51.306;22.680;2023-05-10T04:27:33;100320.80;;;21.88
70050;BMP180;57391;51.306;22.680;2023-05-10T04:30:03;100324.60;;;22.60
70050;BMP180;57391;51.306;22.680;2023-05-10T04:32:31;100326.00;;;23.04
70050;BMP180;57391;51.306;22.680;2023-05-10T04:34:58;100325.00;;;23.40
70050;BMP180;57391;51.306;22.680;2023-05-10T04:37:26;100329.40;;;23.80
70050;BMP180;57391;51.306;22.680;2023-05-10T04:39:53;100337.20;;;24.18
70050;BMP180;57391;51.306;22.680;2023-05-10T04:42:20;100339.40;;;24.74
70050;BMP180;57391;51.306;22.680;2023-05-10T04:44:47;100342.00;;;25.32
70050;BMP180;57391;51.306;22.680;2023-05-10T04:47:14;100345.20;;;25.80
70050;BMP180;57391;51.306;22.680;2023-05-10T04:49:43;100347.20;;;26.00
70050;BMP180;57391;51.306;22.680;2023-05-10T04:52:10;100348.20;;;26.10
70050;BMP180;57391;51.306;22.680;2023-05-10T04:54:38;100355.80;;;25.70
70050;BMP180;57391;51.306;22.680;2023-05-10T04:57:05;100364.60;;;24.12
70050;BMP180;57391;51.306;22.680;2023-05-10T04:59:32;100356.20;;;22.18
70050;BMP180;57391;51.306;22.680;2023-05-10T05:02:02;100360.40;;;20.58
70050;BMP180;57391;51.306;22.680;2023-05-10T05:04:30;100351.40;;;19.52
70050;BMP180;57391;51.306;22.680;2023-05-10T05:06:58;100350.60;;;19.74
70050;BMP180;57391;51.306;22.680;2023-05-10T05:09:25;100344.00;;;20.12
70050;BMP180;57391;51.306;22.680;2023-05-10T05:11:52;100358.60;;;20.20
70050;BMP180;57391;51.306;22.680;2023-05-10T05:14:19;100358.80;;;19.44
70050;BMP180;57391;51.306;22.680;2023-05-10T05:16:47;100353.20;;;18.60
70050;BMP180;57391;51.306;22.680;2023-05-10T05:19:15;100356.00;;;17.62
70050;BMP180;57391;51.306;22.680;2023-05-10T05:21:42;100348.80;;;17.18
70050;BMP180;57391;51.306;22.680;2023-05-10T05:24:09;100339.40;;;17.88
70050;BMP180;57391;51.306;22.680;2023-05-10T05:26:37;100340.60;;;19.12
70050;BMP180;57391;51.306;22.680;2023-05-10T05:29:04;100343.80;;;19.90
70050;BMP180;57391;51.306;22.680;2023-05-10T05:31:31;100342.80;;;20.02
70050;BMP180;57391;51.306;22.680;2023-05-10T05:33:59;100356.60;;;19.40
70050;BMP180;57391;51.306;22.680;2023-05-10T05:36:26;100365.60;;;18.42
70050;BMP180;57391;51.306;22.680;2023-05-10T05:38:53;100359.00;;;17.52
70050;BMP180;57391;51.306;22.680;2023-05-10T05:41:25;100354.40;;;16.64
70050;BMP180;57391;51.306;22.680;2023-05-10T05:43:52;100366.00;;;15.90
70050;BMP180;57391;51.306;22.680;2023-05-10T05:46:19;100356.20;;;15.26
70050;BMP180;57391;51.306;22.680;2023-05-10T05:48:46;100354.40;;;14.80
70050;BMP180;57391;51.306;22.680;2023-05-10T05:51:13;100359.80;;;14.54
70050;BMP180;57391;51.306;22.680;2023-05-10T05:53:41;100350.80;;;14.30
70050;BMP180;57391;51.306;22.680;2023-05-10T05:56:14;100356.00;;;14.00
70050;BMP180;57391;51.306;22.680;2023-05-10T05:58:51;100356.40;;;13.80
70050;BMP180;57391;51.306;22.680;2023-05-10T06:01:18;100360.80;;;13.50
70050;BMP180;57391;51.306;22.680;2023-05-10T06:03:45;100353.60;;;13.38
70050;BMP180;57391;51.306;22.680;2023-05-10T06:06:12;100367.80;;;13.20
70050;BMP180;57391;51.306;22.680;2023-05-10T06:08:40;100360.60;;;13.10
70050;BMP180;57391;51.306;22.680;2023-05-10T06:11:07;100362.80;;;13.00
70050;BMP180;57391;51.306;22.680;2023-05-10T06:13:35;100367.00;;;13.00
70050;BMP180;57391;51.306;22.680;2023-05-10T06:16:03;100362.00;;;13.04
70050;BMP180;57391;51.306;22.680;2023-05-10T06:18:30;100359.60;;;13.22
70050;BMP180;57391;51.306;22.680;2023-05-10T06:20:57;100363.60;;;13.38
70050;BMP180;57391;51.306;22.680;2023-05-10T06:23:24;100364.80;;;13.50
70050;BMP180;57391;51.306;22.680;2023-05-10T06:25:52;100368.40;;;13.60
70050;BMP180;57391;51.306;22.680;2023-05-10T06:28:19;100368.40;;;13.80
70050;BMP180;57391;51.306;22.680;2023-05-10T06:30:47;100368.80;;;13.90
70050;BMP180;57391;51.306;22.680;2023-05-10T06:33:14;100365.20;;;14.00
70050;BMP180;57391;51.306;22.680;2023-05-10T06:35:43;100363.80;;;14.02
70050;BMP180;57391;51.306;22.680;2023-05-10T06:38:10;100359.40;;;14.24
70050;BMP180;57391;51.306;22.680;2023-05-10T06:40:41;100364.00;;;14.40
70050;BMP180;57391;51.306;22.680;2023-05-10T06:43:09;100368.60;;;14.40
70050;BMP180;57391;51.306;22.680;2023-05-10T06:45:37;100365.60;;;14.38
70050;BMP180;57391;51.306;22.680;2023-05-10T06:48:05;100369.20;;;14.40
70050;BMP180;57391;51.306;22.680;2023-05-10T06:50:33;100366.60;;;14.40
70050;BMP180;57391;51.306;22.680;2023-05-10T06:53:02;100368.40;;;14.48
70050;BMP180;57391;51.306;22.680;2023-05-10T06:55:29;100369.00;;;14.76
70050;BMP180;57391;51.306;22.680;2023-05-10T06:57:57;100372.20;;;15.18
70050;BMP180;57391;51.306;22.680;2023-05-10T07:08:20;100378.20;;;17.06
70050;BMP180;57391;51.306;22.680;2023-05-10T07:10:48;100379.40;;;17.20
70050;BMP180;57391;51.306;22.680;2023-05-10T07:13:15;100379.60;;;17.46
70050;BMP180;57391;51.306;22.680;2023-05-10T07:15:42;100381.00;;;17.74
70050;BMP180;57391;51.306;22.680;2023-05-10T07:18:09;100382.40;;;17.90
70050;BMP180;57391;51.306;22.680;2023-05-10T07:20:36;100379.60;;;18.12
70050;BMP180;57391;51.306;22.680;2023-05-10T07:23:03;100382.60;;;18.40
70050;BMP180;57391;51.306;22.680;2023-05-10T07:25:31;100375.40;;;18.40
70050;BMP180;57391;51.306;22.680;2023-05-10T07:27:58;100380.40;;;18.60
70050;BMP180;57391;51.306;22.680;2023-05-10T07:30:25;100386.20;;;18.78
70050;BMP180;57391;51.306;22.680;2023-05-10T07:32:52;100385.60;;;18.94
70050;BMP180;57391;51.306;22.680;2023-05-10T07:35:19;100383.40;;;19.00
70050;BMP180;57391;51.306;22.680;2023-05-10T07:37:46;100385.20;;;18.80
70050;BMP180;57391;51.306;22.680;2023-05-10T07:40:13;100385.20;;;18.50
70050;BMP180;57391;51.306;22.680;2023-05-10T07:42:40;100392.00;;;18.30
70050;BMP180;57391;51.306;22.680;2023-05-10T07:45:08;100386.80;;;18.00
70050;BMP180;57391;51.306;22.680;2023-05-10T07:47:35;100383.20;;;17.70
70050;BMP180;57391;51.306;22.680;2023-05-10T07:50:02;100380.00;;;17.70
70050;BMP180;57391;51.306;22.680;2023-05-10T07:52:30;100376.40;;;17.86
70050;BMP180;57391;51.306;22.680;2023-05-10T07:54:57;100373.00;;;18.08
70050;BMP180;57391;51.306;22.680;2023-05-10T07:57:24;100378.20;;;18.36
70050;BMP180;57391;51.306;22.680;2023-05-10T07:59:51;100372.40;;;18.58
70050;BMP180;57391;51.306;22.680;2023-05-10T08:02:18;100385.40;;;18.72
70050;BMP180;57391;51.306;22.680;2023-05-10T08:04:45;100376.20;;;18.80
70050;BMP180;57391;51.306;22.680;2023-05-10T08:07:12;100383.60;;;18.98
70050;BMP180;57391;51.306;22.680;2023-05-10T08:09:40;100387.80;;;18.96
70050;BMP180;57391;51.306;22.680;2023-05-10T08:12:07;100378.60;;;18.90
70050;BMP180;57391;51.306;22.680;2023-05-10T08:14:35;100380.60;;;18.90
70050;BMP180;57391;51.306;22.680;2023-05-10T08:17:04;100381.20;;;18.98
70050;BMP180;57391;51.306;22.680;2023-05-10T08:19:31;100380.00;;;18.92
70050;BMP180;57391;51.306;22.680;2023-05-10T08:21:58;100370.40;;;18.90
70050;BMP180;57391;51.306;22.680;2023-05-10T08:24:25;100382.20;;;18.86
70050;BMP180;57391;51.306;22.680;2023-05-10T08:26:53;100371.60;;;18.70
70050;BMP180;57391;51.306;22.680;2023-05-10T08:29:19;100373.60;;;18.50
70050;BMP180;57391;51.306;22.680;2023-05-10T08:31:47;100365.00;;;18.40
70050;BMP180;57391;51.306;22.680;2023-05-10T08:34:14;100372.00;;;18.40
70050;BMP180;57391;51.306;22.680;2023-05-10T08:36:41;100371.00;;;18.20
70050;BMP180;57391;51.306;22.680;2023-05-10T08:39:08;100361.20;;;18.10
70050;BMP180;57391;51.306;22.680;2023-05-10T08:41:39;100361.60;;;18.16
70050;BMP180;57391;51.306;22.680;2023-05-10T08:44:08;100369.20;;;18.20
70050;BMP180;57391;51.306;22.680;2023-05-10T08:46:37;100383.40;;;18.20
70050;BMP180;57391;51.306;22.680;2023-05-10T08:49:07;100375.00;;;18.20
70050;BMP180;57391;51.306;22.680;2023-05-10T08:51:40;100354.20;;;18.20
70050;BMP180;57391;51.306;22.680;2023-05-10T08:54:11;100374.40;;;18.20
70050;BMP180;57391;51.306;22.680;2023-05-10T08:56:38;100372.40;;;18.16
70050;BMP180;57391;51.306;22.680;2023-05-10T08:59:06;100379.00;;;18.10
70050;BMP180;57391;51.306;22.680;2023-05-10T09:01:36;100390.00;;;17.90
70050;BMP180;57391;51.306;22.680;2023-05-10T09:04:04;100372.80;;;17.70
70050;BMP180;57391;51.306;22.680;2023-05-10T09:06:32;100379.00;;;17.70
70050;BMP180;57391;51.306;22.680;2023-05-10T09:09:00;100366.20;;;17.70
70050;BMP180;57391;51.306;22.680;2023-05-10T09:11:28;100358.00;;;17.74
70050;BMP180;57391;51.306;22.680;2023-05-10T09:13:56;100377.20;;;17.90
70050;BMP180;57391;51.306;22.680;2023-05-10T09:16:24;100378.00;;;17.90
70050;BMP180;57391;51.306;22.680;2023-05-10T09:18:51;100367.80;;;17.80
70050;BMP180;57391;51.306;22.680;2023-05-10T09:21:19;100363.40;;;17.80
70050;BMP180;57391;51.306;22.680;2023-05-10T09:23:48;100358.40;;;17.70
70050;BMP180;57391;51.306;22.680;2023-05-10T09:26:16;100360.80;;;17.70
70050;BMP180;57391;51.306;22.680;2023-05-10T09:28:56;100363.60;;;17.60
70050;BMP180;57391;51.306;22.680;2023-05-10T09:31:24;100355.40;;;17.54
70050;BMP180;57391;51.306;22.680;2023-05-10T09:33:53;100357.40;;;17.60
70050;BMP180;57391;51.306;22.680;2023-05-10T09:36:20;100352.40;;;17.70
70050;BMP180;57391;51.306;22.680;2023-05-10T09:38:53;100371.00;;;17.72
70050;BMP180;57391;51.306;22.680;2023-05-10T09:41:24;100356.20;;;17.70
70050;BMP180;57391;51.306;22.680;2023-05-10T09:43:56;100354.80;;;17.62
70050;BMP180;57391;51.306;22.680;2023-05-10T09:46:23;100362.80;;;17.60
70050;BMP180;57391;51.306;22.680;2023-05-10T09:48:50;100356.20;;;17.50
70050;BMP180;57391;51.306;22.680;2023-05-10T09:51:24;100356.60;;;17.40
70050;BMP180;57391;51.306;22.680;2023-05-10T09:54:15;100361.80;;;17.30
70050;BMP180;57391;51.306;22.680;2023-05-10T09:56:43;100354.20;;;17.32
70050;BMP180;57391;51.306;22.680;2023-05-10T09:59:12;100356.60;;;17.30
70050;BMP180;57391;51.306;22.680;2023-05-10T10:01:40;100348.00;;;17.20
70050;BMP180;57391;51.306;22.680;2023-05-10T10:04:09;100343.20;;;17.10
70050;BMP180;57391;51.306;22.680;2023-05-10T10:06:39;100345.60;;;17.20
70050;BMP180;57391;51.306;22.680;2023-05-10T10:09:08;100341.20;;;17.20
70050;BMP180;57391;51.306;22.680;2023-05-10T10:11:37;100333.00;;;17.10
70050;BMP180;57391;51.306;22.680;2023-05-10T10:14:05;100336.00;;;17.10
70050;BMP180;57391;51.306;22.680;2023-05-10T10:16:32;100330.60;;;17.22
70050;BMP180;57391;51.306;22.680;2023-05-10T10:19:00;100332.80;;;17.30
70050;BMP180;57391;51.306;22.680;2023-05-10T10:21:28;100334.60;;;17.40
70050;BMP180;57391;51.306;22.680;2023-05-10T10:23:54;100325.20;;;17.42
70050;BMP180;57391;51.306;22.680;2023-05-10T10:26:22;100320.80;;;17.40
70050;BMP180;57391;51.306;22.680;2023-05-10T10:29:26;100328.60;;;17.40
70050;BMP180;57391;51.306;22.680;2023-05-10T10:32:22;100318.60;;;17.32
70050;BMP180;57391;51.306;22.680;2023-05-10T10:34:54;100325.80;;;17.30
70050;BMP180;57391;51.306;22.680;2023-05-10T10:37:21;100322.20;;;17.28
70050;BMP180;57391;51.306;22.680;2023-05-10T10:39:49;100312.80;;;17.30
70050;BMP180;57391;51.306;22.680;2023-05-10T10:42:47;100321.40;;;17.40
70050;BMP180;57391;51.306;22.680;2023-05-10T10:45:14;100312.60;;;17.30
70050;BMP180;57391;51.306;22.680;2023-05-10T10:47:41;100308.80;;;17.22
70050;BMP180;57391;51.306;22.680;2023-05-10T10:50:10;100301.20;;;17.12
70050;BMP180;57391;51.306;22.680;2023-05-10T10:52:44;100301.40;;;17.10
70050;BMP180;57391;51.306;22.680;2023-05-10T10:55:17;100293.80;;;17.10
70050;BMP180;57391;51.306;22.680;2023-05-10T10:57:53;100301.60;;;17.10
70050;BMP180;57391;51.306;22.680;2023-05-10T11:00:31;100291.20;;;17.00
70050;BMP180;57391;51.306;22.680;2023-05-10T11:03:09;100294.60;;;17.00
70050;BMP180;57391;51.306;22.680;2023-05-10T11:05:48;100287.40;;;16.96
70050;BMP180;57391;51.306;22.680;2023-05-10T11:08:28;100282.00;;;16.96
70050;BMP180;57391;51.306;22.680;2023-05-10T11:13:46;100281.60;;;16.90
70050;BMP180;57391;51.306;22.680;2023-05-10T11:16:19;100286.60;;;16.90
70050;BMP180;57391;51.306;22.680;2023-05-10T11:19:04;100278.60;;;16.90
70050;BMP180;57391;51.306;22.680;2023-05-10T11:22:29;100276.00;;;17.00
70050;BMP180;57391;51.306;22.680;2023-05-10T11:24:32;100275.00;;;17.00
70050;BMP180;57391;51.306;22.680;2023-05-10T11:27:01;100279.80;;;16.98
70050;BMP180;57391;51.306;22.680;2023-05-10T11:29:28;100283.00;;;16.90
70050;BMP180;57391;51.306;22.680;2023-05-10T11:31:58;100270.40;;;16.98
70050;BMP180;57391;51.306;22.680;2023-05-10T11:34:29;100264.00;;;17.02
70050;BMP180;57391;51.306;22.680;2023-05-10T11:36:57;100268.60;;;17.18
70050;BMP180;57391;51.306;22.680;2023-05-10T11:39:31;100272.00;;;17.20
70050;BMP180;57391;51.306;22.680;2023-05-10T11:41:58;100268.20;;;17.20
70050;BMP180;57391;51.306;22.680;2023-05-10T11:44:33;100269.80;;;17.30
70050;BMP180;57391;51.306;22.680;2023-05-10T11:47:05;100284.60;;;17.30
70050;BMP180;57391;51.306;22.680;2023-05-10T11:49:35;100272.80;;;17.30
70050;BMP180;57391;51.306;22.680;2023-05-10T11:52:05;100275.80;;;17.20
70050;BMP180;57391;51.306;22.680;2023-05-10T11:54:57;100266.20;;;17.30
70050;BMP180;57391;51.306;22.680;2023-05-10T11:57:29;100273.40;;;17.40
70050;BMP180;57391;51.306;22.680;2023-05-10T12:00:00;100268.00;;;17.34
70050;BMP180;57391;51.306;22.680;2023-05-10T12:02:53;100266.60;;;17.30
70050;BMP180;57391;51.306;22.680;2023-05-10T12:05:20;100257.00;;;17.30
70050;BMP180;57391;51.306;22.680;2023-05-10T12:07:48;100257.80;;;17.30
70050;BMP180;57391;51.306;22.680;2023-05-10T12:10:15;100261.60;;;17.30
70050;BMP180;57391;51.306;22.680;2023-05-10T12:12:46;100264.80;;;17.30
70050;BMP180;57391;51.306;22.680;2023-05-10T12:15:23;100261.00;;;17.30
70050;BMP180;57391;51.306;22.680;2023-05-10T12:18:10;100256.80;;;17.20
70050;BMP180;57391;51.306;22.680;2023-05-10T12:20:38;100260.00;;;17.22
70050;BMP180;57391;51.306;22.680;2023-05-10T12:23:09;100257.60;;;17.30
70050;BMP180;57391;51.306;22.680;2023-05-10T12:25:38;100255.80;;;17.30
70050;BMP180;57391;51.306;22.680;2023-05-10T12:28:08;100249.00;;;17.30
70050;BMP180;57391;51.306;22.680;2023-05-10T12:30:38;100248.00;;;17.30
70050;BMP180;57391;51.306;22.680;2023-05-10T12:33:13;100252.20;;;17.34
70050;BMP180;57391;51.306;22.680;2023-05-10T12:35:50;100249.20;;;17.30
70050;BMP180;57391;51.306;22.680;2023-05-10T12:38:37;100257.80;;;17.32
70050;BMP180;57391;51.306;22.680;2023-05-10T12:41:08;100257.60;;;17.30
70050;BMP180;57391;51.306;22.680;2023-05-10T12:43:37;100250.40;;;17.30
70050;BMP180;57391;51.306;22.680;2023-05-10T12:46:14;100243.60;;;17.20
70050;BMP180;57391;51.306;22.680;2023-05-10T12:48:43;100235.40;;;17.16
70050;BMP180;57391;51.306;22.680;2023-05-10T12:51:10;100237.60;;;17.10
70050;BMP180;57391;51.306;22.680;2023-05-10T12:53:40;100232.00;;;17.00
70050;BMP180;57391;51.306;22.680;2023-05-10T12:56:07;100230.60;;;17.00
70050;BMP180;57391;51.306;22.680;2023-05-10T12:58:34;100222.00;;;17.00
70050;BMP180;57391;51.306;22.680;2023-05-10T13:01:03;100224.60;;;17.00
70050;BMP180;57391;51.306;22.680;2023-05-10T13:03:32;100220.80;;;17.10
70050;BMP180;57391;51.306;22.680;2023-05-10T13:05:59;100220.80;;;17.20
70050;BMP180;57391;51.306;22.680;2023-05-10T13:08:26;100221.80;;;17.30
70050;BMP180;57391;51.306;22.680;2023-05-10T13:10:56;100212.60;;;17.30
70050;BMP180;57391;51.306;22.680;2023-05-10T13:13:23;100224.00;;;17.30
70050;BMP180;57391;51.306;22.680;2023-05-10T13:15:50;100215.40;;;17.20
70050;BMP180;57391;51.306;22.680;2023-05-10T13:18:17;100217.00;;;17.20
70050;BMP180;57391;51.306;22.680;2023-05-10T13:20:45;100214.00;;;17.20
70050;BMP180;57391;51.306;22.680;2023-05-10T13:23:12;100208.80;;;17.30
70050;BMP180;57391;51.306;22.680;2023-05-10T13:25:39;100215.60;;;17.28
70050;BMP180;57391;51.306;22.680;2023-05-10T13:28:07;100219.40;;;17.20
70050;BMP180;57391;51.306;22.680;2023-05-10T13:30:34;100218.60;;;17.20
70050;BMP180;57391;51.306;22.680;2023-05-10T13:33:02;100209.40;;;17.10
70050;BMP180;57391;51.306;22.680;2023-05-10T13:35:29;100208.00;;;17.08
70050;BMP180;57391;51.306;22.680;2023-05-10T13:37:56;100202.80;;;17.00
70050;BMP180;57391;51.306;22.680;2023-05-10T13:40:24;100195.20;;;17.10
70050;BMP180;57391;51.306;22.680;2023-05-10T13:42:51;100194.80;;;17.20
70050;BMP180;57391;51.306;22.680;2023-05-10T13:45:20;100195.80;;;17.30
70050;BMP180;57391;51.306;22.680;2023-05-10T13:47:47;100193.60;;;17.40
70050;BMP180;57391;51.306;22.680;2023-05-10T13:50:15;100192.20;;;17.40
70050;BMP180;57391;51.306;22.680;2023-05-10T13:52:42;100188.20;;;17.50
70050;BMP180;57391;51.306;22.680;2023-05-10T13:55:09;100186.00;;;17.50
70050;BMP180;57391;51.306;22.680;2023-05-10T13:57:39;100179.40;;;17.54
70050;BMP180;57391;51.306;22.680;2023-05-10T14:00:07;100184.20;;;17.60
70050;BMP180;57391;51.306;22.680;2023-05-10T14:02:37;100182.40;;;17.70
70050;BMP180;57391;51.306;22.680;2023-05-10T14:05:05;100183.20;;;17.70
70050;BMP180;57391;51.306;22.680;2023-05-10T14:07:32;100184.40;;;17.64
70050;BMP180;57391;51.306;22.680;2023-05-10T14:10:00;100178.60;;;17.60
70050;BMP180;57391;51.306;22.680;2023-05-10T14:12:28;100168.40;;;17.60
70050;BMP180;57391;51.306;22.680;2023-05-10T14:14:56;100175.80;;;17.60
70050;BMP180;57391;51.306;22.680;2023-05-10T14:17:24;100166.80;;;17.60
70050;BMP180;57391;51.306;22.680;2023-05-10T14:19:52;100162.60;;;17.60
70050;BMP180;57391;51.306;22.680;2023-05-10T14:22:20;100161.80;;;17.60
70050;BMP180;57391;51.306;22.680;2023-05-10T14:24:47;100168.20;;;17.60